Time;durP1;ratioP1;P1;durP2;ratioP2;P2;SDS_P1;SDS_P2;PMS_P1;PMS_P2;Temp;Humidity;BMP_temperature;BMP_pressure;BME280_temperature;BME280_humidity;BME280_pressure;Samples;Min_cycle;Max_cycle;Signal;HPM_P1;HPM_P2
2021/10/13 00:01:35;;;;;;;3.55;0.77;;;;;;;;;;5008481;28;20041;-73
2021/10/13 00:04:01;;;;;;;9.27;2.35;;;;;;;;;;5010225;28;20472;-73
2021/10/13 00:06:27;;;;;;;5.63;0.77;;;;;;;;;;5007392;28;20029;-73
2021/10/13 00:08:53;;;;;;;3.15;0.63;;;;;;;;;;5014925;28;20064;-73
2021/10/13 00:11:19;;;;;;;5.47;0.60;;;;;;;;;;5002207;28;20030;-73
2021/10/13 00:13:45;;;;;;;9.57;1.10;;;;;;;;;;5010031;28;20029;-73
2021/10/13 00:16:13;;;;;;;2.28;0.47;;;;;;;;;;5008609;28;20034;-73
2021/10/13 00:18:39;;;;;;;7.65;1.33;;;;;;;;;;5010438;28;20109;-74
2021/10/13 00:21:05;;;;;;;10.15;1.15;;;;;;;;;;5008982;28;20547;-74
2021/10/13 00:23:31;;;;;;;4.85;0.73;;;;;;;;;;5008321;28;20030;-74
2021/10/13 00:25:57;;;;;;;8.30;0.60;;;;;;;;;;5009825;28;20034;-74
2021/10/13 00:28:24;;;;;;;4.47;0.70;;;;;;;;;;5008535;28;20128;-74
2021/10/13 00:30:50;;;;;;;8.23;0.77;;;;;;;;;;5007255;28;20030;-74
2021/10/13 00:33:16;;;;;;;1.15;0.57;;;;;;;;;;5003312;28;20034;-74
2021/10/13 00:35:41;;;;;;;1.75;0.40;;;;;;;;;;5009753;28;20040;-74
2021/10/13 00:38:07;;;;;;;1.98;0.60;;;;;;;;;;5007805;28;20390;-73
2021/10/13 00:40:33;;;;;;;3.35;0.70;;;;;;;;;;5011756;28;20033;-73
2021/10/13 00:42:59;;;;;;;6.60;0.63;;;;;;;;;;5013237;28;20038;-73
2021/10/13 00:45:25;;;;;;;6.07;0.85;;;;;;;;;;5004786;28;20514;-74
2021/10/13 00:47:51;;;;;;;5.28;0.82;;;;;;;;;;5012847;28;20105;-74
2021/10/13 00:50:17;;;;;;;7.10;0.93;;;;;;;;;;5011803;28;20564;-72
2021/10/13 00:52:44;;;;;;;1.60;0.40;;;;;;;;;;5011421;28;20574;-74
2021/10/13 00:55:17;;;;;;;2.00;0.52;;;;;;;;;;5018843;28;20076;-73
2021/10/13 00:57:43;;;;;;;5.28;0.80;;;;;;;;;;5013211;28;20076;-73
2021/10/13 01:00:09;;;;;;;1.50;0.45;;;;;;;;;;5016519;28;20503;-73
2021/10/13 01:02:41;;;;;;;4.15;1.42;;;;;;;;;;5013414;28;20033;-73
2021/10/13 01:05:13;;;;;;;3.47;1.58;;;;;;;;;;5014147;28;20091;-73
2021/10/13 01:07:44;;;;;;;12.13;1.70;;;;;;;;;;5012978;28;20026;-73
2021/10/13 01:10:19;;;;;;;3.65;0.80;;;;;;;;;;5011361;28;20056;-73
2021/10/13 01:13:04;;;;;;;4.10;0.50;;;;;;;;;;5011161;28;20021;-73
2021/10/13 01:15:41;;;;;;;4.38;0.50;;;;;;;;;;5013635;28;20077;-73
2021/10/13 01:18:14;;;;;;;2.28;0.30;;;;;;;;;;5013306;28;20022;-73
2021/10/13 01:20:58;;;;;;;4.43;0.40;;;;;;;;;;5011346;28;20145;-73
2021/10/13 01:23:40;;;;;;;7.40;0.85;;;;;;;;;;5009900;28;20017;-73
2021/10/13 01:26:22;;;;;;;3.35;0.35;;;;;;;;;;5011187;28;20034;-73
2021/10/13 01:28:49;;;;;;;5.93;0.63;;;;;;;;;;5009250;28;20041;-73
2021/10/13 01:31:24;;;;;;;2.92;0.50;;;;;;;;;;5012203;28;20115;-73
2021/10/13 01:33:58;;;;;;;4.45;0.50;;;;;;;;;;5020247;28;20379;-73
2021/10/13 01:36:28;;;;;;;3.30;0.47;;;;;;;;;;5005323;28;20093;-73
2021/10/13 01:38:54;;;;;;;3.20;0.63;;;;;;;;;;5011987;28;20080;-73
2021/10/13 01:41:21;;;;;;;1.83;0.30;;;;;;;;;;5012548;28;20498;-73
2021/10/13 01:43:50;;;;;;;3.38;0.38;;;;;;;;;;5012700;28;20037;-73
2021/10/13 01:46:16;;;;;;;3.35;0.52;;;;;;;;;;5012108;28;20037;-72
2021/10/13 01:48:44;;;;;;;2.45;0.50;;;;;;;;;;5012516;28;20030;-73
2021/10/13 01:51:11;;;;;;;1.23;0.28;;;;;;;;;;5011621;28;20037;-73
2021/10/13 01:53:38;;;;;;;4.20;0.60;;;;;;;;;;5006089;28;20033;-73
2021/10/13 01:56:05;;;;;;;3.42;0.65;;;;;;;;;;5010317;28;20041;-73
2021/10/13 01:58:31;;;;;;;3.90;0.73;;;;;;;;;;5012413;28;20096;-73
2021/10/13 02:00:58;;;;;;;3.15;0.52;;;;;;;;;;5011584;28;20498;-73
2021/10/13 02:03:25;;;;;;;4.28;0.70;;;;;;;;;;5010473;28;20109;-73
2021/10/13 02:05:54;;;;;;;4.60;0.60;;;;;;;;;;5011560;28;20029;-73
2021/10/13 02:08:20;;;;;;;6.15;0.88;;;;;;;;;;5011637;28;20048;-73
2021/10/13 02:10:47;;;;;;;6.95;1.38;;;;;;;;;;5017917;28;20041;-73
2021/10/13 02:13:13;;;;;;;6.60;0.50;;;;;;;;;;5011801;28;20101;-73
2021/10/13 02:15:41;;;;;;;4.53;0.88;;;;;;;;;;5003922;28;20104;-73
2021/10/13 02:18:09;;;;;;;3.85;0.98;;;;;;;;;;5017737;28;20052;-73
2021/10/13 02:20:35;;;;;;;8.50;1.10;;;;;;;;;;5015646;28;20057;-73
2021/10/13 02:23:02;;;;;;;5.60;0.88;;;;;;;;;;5009006;28;20483;-73
2021/10/13 02:25:34;;;;;;;4.00;0.75;;;;;;;;;;5010198;28;20064;-73
2021/10/13 02:28:04;;;;;;;5.85;0.95;;;;;;;;;;5011930;28;20026;-73
2021/10/13 02:30:30;;;;;;;5.90;0.77;;;;;;;;;;5011147;28;20018;-73
2021/10/13 02:32:56;;;;;;;3.78;0.57;;;;;;;;;;5003525;28;20108;-73
2021/10/13 02:35:22;;;;;;;6.50;0.90;;;;;;;;;;5011008;28;20364;-73
2021/10/13 02:37:48;;;;;;;3.85;0.85;;;;;;;;;;5011085;28;20057;-73
2021/10/13 02:40:14;;;;;;;5.97;1.00;;;;;;;;;;5011242;28;20071;-73
2021/10/13 02:42:40;;;;;;;5.00;1.13;;;;;;;;;;5011839;28;20512;-73
2021/10/13 02:45:07;;;;;;;11.93;3.50;;;;;;;;;;5013763;28;20025;-73
2021/10/13 02:47:40;;;;;;;3.72;0.75;;;;;;;;;;5009369;28;20036;-73
2021/10/13 02:50:09;;;;;;;2.95;0.68;;;;;;;;;;5010788;28;20554;-73
2021/10/13 02:52:44;;;;;;;6.63;0.93;;;;;;;;;;5010972;28;20490;-73
2021/10/13 02:55:19;;;;;;;6.20;0.73;;;;;;;;;;5009366;28;20129;-73
2021/10/13 02:58:04;;;;;;;5.65;0.98;;;;;;;;;;5009144;28;20022;-73
2021/10/13 03:00:31;;;;;;;4.00;1.08;;;;;;;;;;5011055;28;20056;-73
2021/10/13 03:03:03;;;;;;;3.85;0.80;;;;;;;;;;5012219;28;20022;-73
2021/10/13 03:05:30;;;;;;;5.15;0.90;;;;;;;;;;5011087;28;20141;-73
2021/10/13 03:07:57;;;;;;;4.47;1.00;;;;;;;;;;5014342;28;20033;-73
2021/10/13 03:10:24;;;;;;;5.40;0.63;;;;;;;;;;5010399;28;20060;-73
2021/10/13 03:12:52;;;;;;;4.35;0.65;;;;;;;;;;5010839;28;20018;-73
2021/10/13 03:15:19;;;;;;;6.70;0.73;;;;;;;;;;5001763;28;20018;-73
2021/10/13 03:17:47;;;;;;;3.88;0.60;;;;;;;;;;5009088;28;20501;-73
2021/10/13 03:20:14;;;;;;;4.00;0.70;;;;;;;;;;5010787;28;20022;-73
2021/10/13 03:22:40;;;;;;;6.30;1.23;;;;;;;;;;5010293;28;20064;-73
2021/10/13 03:25:06;;;;;;;3.42;0.73;;;;;;;;;;5012935;28;20022;-73
2021/10/13 03:27:32;;;;;;;3.22;0.28;;;;;;;;;;5008845;28;20490;-73
2021/10/13 03:29:58;;;;;;;4.90;1.00;;;;;;;;;;5010021;28;20026;-73
2021/10/13 03:32:24;;;;;;;2.50;0.55;;;;;;;;;;5005814;28;20387;-73
2021/10/13 03:34:50;;;;;;;7.85;1.25;;;;;;;;;;5007188;28;20092;-73
2021/10/13 03:37:17;;;;;;;4.30;0.70;;;;;;;;;;5008606;28;20041;-73
2021/10/13 03:39:46;;;;;;;5.18;0.68;;;;;;;;;;5010311;28;20030;-73
2021/10/13 03:42:12;;;;;;;9.20;0.80;;;;;;;;;;5008929;28;20040;-73
2021/10/13 03:44:38;;;;;;;6.43;0.77;;;;;;;;;;5008837;28;20542;-73
2021/10/13 03:47:05;;;;;;;10.48;0.80;;;;;;;;;;5001815;28;20547;-73
2021/10/13 03:49:31;;;;;;;4.13;0.38;;;;;;;;;;5011174;28;20018;-73
2021/10/13 03:51:57;;;;;;;4.80;0.68;;;;;;;;;;5008809;28;20032;-75
2021/10/13 03:54:22;;;;;;;6.75;0.88;;;;;;;;;;5009997;28;20054;-75
2021/10/13 03:56:48;;;;;;;5.20;0.88;;;;;;;;;;5010564;28;20053;-74
2021/10/13 03:59:14;;;;;;;7.40;1.00;;;;;;;;;;5010403;28;20066;-75
2021/10/13 04:01:40;;;;;;;5.45;0.80;;;;;;;;;;5008678;28;20193;-74
2021/10/13 04:04:07;;;;;;;2.50;1.08;;;;;;;;;;5008938;28;20021;-74
2021/10/13 04:06:33;;;;;;;6.53;1.55;;;;;;;;;;5009671;28;20088;-74
2021/10/13 04:08:58;;;;;;;4.90;0.60;;;;;;;;;;5010200;28;20034;-74
2021/10/13 04:11:24;;;;;;;2.65;0.95;;;;;;;;;;5010059;28;20029;-74
2021/10/13 04:13:50;;;;;;;5.95;0.80;;;;;;;;;;5011189;28;20022;-74
2021/10/13 04:16:16;;;;;;;7.65;0.60;;;;;;;;;;5013997;28;20032;-74
2021/10/13 04:18:42;;;;;;;3.88;0.50;;;;;;;;;;5013555;28;20030;-74
2021/10/13 04:21:08;;;;;;;5.03;0.63;;;;;;;;;;5013434;28;20046;-75
2021/10/13 04:23:34;;;;;;;4.50;0.80;;;;;;;;;;5015083;28;20038;-74
2021/10/13 04:26:00;;;;;;;2.85;0.60;;;;;;;;;;5013775;28;20108;-74
2021/10/13 04:28:26;;;;;;;3.10;0.60;;;;;;;;;;5014122;28;20033;-74
2021/10/13 04:30:52;;;;;;;5.75;1.80;;;;;;;;;;5013373;28;20033;-74
2021/10/13 04:33:18;;;;;;;9.40;1.40;;;;;;;;;;5012757;28;20026;-74
2021/10/13 04:35:45;;;;;;;2.60;0.90;;;;;;;;;;5010994;28;20026;-74
2021/10/13 04:38:11;;;;;;;7.03;0.77;;;;;;;;;;5013709;28;20107;-74
2021/10/13 04:40:37;;;;;;;6.30;0.50;;;;;;;;;;5013491;28;20490;-74
2021/10/13 04:43:03;;;;;;;5.80;1.05;;;;;;;;;;5013740;28;20037;-74
2021/10/13 04:45:29;;;;;;;5.97;0.60;;;;;;;;;;5013479;28;20026;-73
2021/10/13 04:47:55;;;;;;;4.47;0.60;;;;;;;;;;5013781;28;20101;-74
2021/10/13 04:50:21;;;;;;;3.85;0.40;;;;;;;;;;5012021;28;20037;-74
2021/10/13 04:52:47;;;;;;;5.32;0.82;;;;;;;;;;5015301;28;20026;-74
2021/10/13 04:55:13;;;;;;;6.20;0.70;;;;;;;;;;5011994;28;20021;-74
2021/10/13 04:57:39;;;;;;;5.45;0.95;;;;;;;;;;5013753;28;20033;-74
2021/10/13 05:00:05;;;;;;;4.38;1.45;;;;;;;;;;5013453;28;20041;-74
2021/10/13 05:02:31;;;;;;;4.03;0.60;;;;;;;;;;5011954;28;20041;-74
2021/10/13 05:04:57;;;;;;;5.53;0.93;;;;;;;;;;5013094;28;20085;-74
2021/10/13 05:07:23;;;;;;;6.28;0.80;;;;;;;;;;5012946;28;20034;-74
2021/10/13 05:09:49;;;;;;;5.07;0.95;;;;;;;;;;5016872;28;20049;-74
2021/10/13 05:12:15;;;;;;;6.50;1.63;;;;;;;;;;5013476;28;20025;-74
2021/10/13 05:14:41;;;;;;;5.63;0.75;;;;;;;;;;5013598;28;20025;-74
2021/10/13 05:17:07;;;;;;;2.63;0.70;;;;;;;;;;5012717;28;20487;-74
2021/10/13 05:19:33;;;;;;;2.67;1.10;;;;;;;;;;5011454;28;20116;-74
2021/10/13 05:21:59;;;;;;;5.78;0.57;;;;;;;;;;5012436;28;20033;-74
2021/10/13 05:24:25;;;;;;;2.63;0.82;;;;;;;;;;5012222;28;20498;-74
2021/10/13 05:26:51;;;;;;;2.47;1.33;;;;;;;;;;5003689;28;20029;-74
2021/10/13 05:29:17;;;;;;;5.30;1.10;;;;;;;;;;5011669;28;20025;-74
2021/10/13 05:31:42;;;;;;;3.72;0.73;;;;;;;;;;5006674;28;20040;-74
2021/10/13 05:34:08;;;;;;;5.22;1.10;;;;;;;;;;5010265;28;20490;-74
2021/10/13 05:36:34;;;;;;;3.53;1.10;;;;;;;;;;5006532;28;20501;-73
2021/10/13 05:39:00;;;;;;;6.90;1.10;;;;;;;;;;5008878;28;20025;-74
2021/10/13 05:41:26;;;;;;;7.28;1.63;;;;;;;;;;5009660;28;20034;-73
2021/10/13 05:43:52;;;;;;;8.20;2.13;;;;;;;;;;5009905;28;20029;-73
2021/10/13 05:46:18;;;;;;;6.28;1.55;;;;;;;;;;5012905;28;20025;-73
2021/10/13 05:48:44;;;;;;;7.43;1.38;;;;;;;;;;5013193;28;20095;-77
2021/10/13 05:51:10;;;;;;;5.30;1.25;;;;;;;;;;5009017;28;20041;-75
2021/10/13 05:53:36;;;;;;;4.18;0.82;;;;;;;;;;5021345;28;20019;-75
2021/10/13 05:56:02;;;;;;;2.95;0.85;;;;;;;;;;5026628;28;20472;-75
2021/10/13 05:58:28;;;;;;;7.50;1.85;;;;;;;;;;4998072;28;20033;-74
2021/10/13 06:00:55;;;;;;;2.28;0.80;;;;;;;;;;4996039;28;20077;-74
2021/10/13 06:03:21;;;;;;;3.10;0.88;;;;;;;;;;4997838;28;20018;-73
2021/10/13 06:05:47;;;;;;;7.78;1.10;;;;;;;;;;4994840;28;20053;-73
2021/10/13 06:08:13;;;;;;;3.28;0.80;;;;;;;;;;4994558;28;20038;-72
2021/10/13 06:10:39;;;;;;;7.63;1.17;;;;;;;;;;4997333;28;20076;-73
2021/10/13 06:13:05;;;;;;;5.88;1.00;;;;;;;;;;5003732;28;20073;-75
2021/10/13 06:15:34;;;;;;;6.75;1.25;;;;;;;;;;5000121;28;20400;-75
2021/10/13 06:18:10;;;;;;;6.18;1.27;;;;;;;;;;4998706;28;20475;-74
2021/10/13 06:20:36;;;;;;;2.60;0.80;;;;;;;;;;4999179;28;20049;-75
2021/10/13 06:23:02;;;;;;;3.67;1.13;;;;;;;;;;5000125;28;20564;-75
2021/10/13 06:25:28;;;;;;;6.10;1.52;;;;;;;;;;4997293;28;20121;-75
2021/10/13 06:27:54;;;;;;;4.10;1.00;;;;;;;;;;4995985;28;20054;-75
2021/10/13 06:30:21;;;;;;;5.15;1.15;;;;;;;;;;4998492;28;20037;-74
2021/10/13 06:32:47;;;;;;;3.10;1.25;;;;;;;;;;5011721;28;20022;-75
2021/10/13 06:35:13;;;;;;;4.13;1.20;;;;;;;;;;5003906;28;20026;-75
2021/10/13 06:37:39;;;;;;;5.35;1.00;;;;;;;;;;5009058;28;20033;-75
2021/10/13 06:40:05;;;;;;;3.53;1.20;;;;;;;;;;5009961;28;20403;-76
2021/10/13 06:42:31;;;;;;;4.60;1.17;;;;;;;;;;5007230;28;20470;-75
2021/10/13 06:44:57;;;;;;;3.53;1.30;;;;;;;;;;4997375;28;20080;-75
2021/10/13 06:47:23;;;;;;;3.30;1.00;;;;;;;;;;4997481;28;20018;-75
2021/10/13 06:49:49;;;;;;;5.70;1.25;;;;;;;;;;5001592;28;20523;-74
2021/10/13 06:52:15;;;;;;;3.83;1.42;;;;;;;;;;5010119;28;20030;-75
2021/10/13 06:54:41;;;;;;;6.13;1.35;;;;;;;;;;5008608;28;20057;-75
2021/10/13 06:57:07;;;;;;;4.60;1.13;;;;;;;;;;5010763;28;20452;-75
2021/10/13 06:59:33;;;;;;;10.23;1.80;;;;;;;;;;5010440;28;20022;-75
2021/10/13 07:01:59;;;;;;;4.93;1.50;;;;;;;;;;4994789;28;20108;-75
2021/10/13 07:04:25;;;;;;;8.10;1.83;;;;;;;;;;5011259;28;20741;-75
2021/10/13 07:06:51;;;;;;;7.03;1.77;;;;;;;;;;5004551;28;20026;-74
2021/10/13 07:09:17;;;;;;;5.45;2.70;;;;;;;;;;5022000;28;20451;-75
2021/10/13 07:11:43;;;;;;;5.57;1.42;;;;;;;;;;4999236;28;20080;-75
2021/10/13 07:14:09;;;;;;;5.78;1.63;;;;;;;;;;4997428;28;20030;-74
2021/10/13 07:16:35;;;;;;;6.68;1.48;;;;;;;;;;4999426;28;20472;-75
2021/10/13 07:19:01;;;;;;;6.20;2.40;;;;;;;;;;5003009;28;20490;-75
2021/10/13 07:21:27;;;;;;;6.40;1.80;;;;;;;;;;4995256;28;20026;-75
2021/10/13 07:23:53;;;;;;;2.65;1.25;;;;;;;;;;5000536;28;20459;-75
2021/10/13 07:26:19;;;;;;;4.38;0.90;;;;;;;;;;4995473;28;20075;-75
2021/10/13 07:28:45;;;;;;;3.53;1.00;;;;;;;;;;5008353;28;20138;-75
2021/10/13 07:31:11;;;;;;;4.13;1.38;;;;;;;;;;5008497;28;20026;-75
2021/10/13 07:33:37;;;;;;;9.00;1.35;;;;;;;;;;5010057;28;20555;-75
2021/10/13 07:36:03;;;;;;;7.93;1.20;;;;;;;;;;5010526;28;20030;-76
2021/10/13 07:38:29;;;;;;;3.60;1.30;;;;;;;;;;5009400;28;20065;-75
2021/10/13 07:40:55;;;;;;;4.47;1.30;;;;;;;;;;5009044;28;20072;-75
2021/10/13 07:43:21;;;;;;;7.65;2.92;;;;;;;;;;5008718;28;20026;-75
2021/10/13 07:45:47;;;;;;;4.63;1.00;;;;;;;;;;5009883;28;20036;-75
2021/10/13 07:48:13;;;;;;;11.00;1.38;;;;;;;;;;5009407;28;20032;-75
2021/10/13 07:50:39;;;;;;;3.45;0.93;;;;;;;;;;5008568;28;20026;-75
2021/10/13 07:53:06;;;;;;;3.88;1.25;;;;;;;;;;5010368;28;20036;-75
2021/10/13 07:55:32;;;;;;;4.03;0.55;;;;;;;;;;5008299;28;20026;-75
2021/10/13 07:57:58;;;;;;;6.55;0.50;;;;;;;;;;5009706;28;21283;-75
2021/10/13 08:00:24;;;;;;;1.80;0.50;;;;;;;;;;5004602;28;20109;-74
2021/10/13 08:02:50;;;;;;;4.63;0.68;;;;;;;;;;5009513;28;20029;-75
2021/10/13 08:05:17;;;;;;;3.95;1.27;;;;;;;;;;5004813;28;20026;-75
2021/10/13 08:07:44;;;;;;;4.75;0.50;;;;;;;;;;5002426;28;20038;-75
2021/10/13 08:10:10;;;;;;;1.63;0.30;;;;;;;;;;5003969;28;20117;-75
2021/10/13 08:12:36;;;;;;;2.65;0.40;;;;;;;;;;5000795;28;20037;-76
2021/10/13 08:15:02;;;;;;;1.33;0.40;;;;;;;;;;5005966;28;20029;-75
2021/10/13 08:17:28;;;;;;;4.40;0.50;;;;;;;;;;5010034;28;20105;-76
2021/10/13 08:19:54;;;;;;;2.80;0.50;;;;;;;;;;5006143;28;20121;-75
2021/10/13 08:22:21;;;;;;;4.18;0.95;;;;;;;;;;5002851;28;20064;-74
2021/10/13 08:24:47;;;;;;;4.15;0.90;;;;;;;;;;5002305;28;20014;-74
2021/10/13 08:27:13;;;;;;;5.57;0.40;;;;;;;;;;5009692;28;20100;-74
2021/10/13 08:29:40;;;;;;;3.45;0.60;;;;;;;;;;5003866;28;20454;-75
2021/10/13 08:32:06;;;;;;;2.25;0.50;;;;;;;;;;5007697;28;20029;-75
2021/10/13 08:34:32;;;;;;;2.75;0.75;;;;;;;;;;5009787;28;20022;-75
2021/10/13 08:36:58;;;;;;;2.97;0.50;;;;;;;;;;5002780;28;20590;-74
2021/10/13 08:39:24;;;;;;;2.00;0.60;;;;;;;;;;5009553;28;20069;-75
2021/10/13 08:41:50;;;;;;;4.82;0.68;;;;;;;;;;5009997;28;20152;-74
2021/10/13 08:44:16;;;;;;;1.88;0.65;;;;;;;;;;5007968;28;20121;-75
2021/10/13 08:46:42;;;;;;;3.00;0.50;;;;;;;;;;5009701;28;20458;-75
2021/10/13 08:49:08;;;;;;;3.38;0.60;;;;;;;;;;5009904;28;20105;-75
2021/10/13 08:51:38;;;;;;;2.28;0.57;;;;;;;;;;5008466;28;20148;-74
2021/10/13 08:54:04;;;;;;;;;;;;;;;;;;5009447;28;20028;-75
2021/10/13 08:56:30;;;;;;;2.15;0.60;;;;;;;;;;5008437;28;19902;-75
2021/10/13 08:58:56;;;;;;;2.95;0.70;;;;;;;;;;5009510;28;20068;-75
2021/10/13 09:01:22;;;;;;;4.80;0.70;;;;;;;;;;5012592;28;20026;-74
2021/10/13 09:03:55;;;;;;;5.15;0.73;;;;;;;;;;5013233;28;20112;-75
2021/10/13 09:06:25;;;;;;;1.67;0.30;;;;;;;;;;5013811;28;20075;-75
2021/10/13 09:08:51;;;;;;;;;;;;;;;;;;5009768;28;20029;-75
2021/10/13 09:11:18;;;;;;;1.67;0.45;;;;;;;;;;5009051;28;19914;-75
2021/10/13 09:13:44;;;;;;;2.50;0.40;;;;;;;;;;5008911;28;20079;-74
2021/10/13 09:16:15;;;;;;;9.60;1.10;;;;;;;;;;5012428;28;20097;-75
2021/10/13 09:18:41;;;;;;;3.35;0.60;;;;;;;;;;5012999;28;20433;-75
2021/10/13 09:21:07;;;;;;;3.70;1.23;;;;;;;;;;5012264;28;20053;-75
2021/10/13 09:23:33;;;;;;;5.82;0.85;;;;;;;;;;5014474;28;20084;-75
2021/10/13 09:26:04;;;;;;;7.82;1.23;;;;;;;;;;5013291;28;20029;-75
2021/10/13 09:28:30;;;;;;;3.90;0.30;;;;;;;;;;5018435;28;20483;-75
2021/10/13 09:30:56;;;;;;;1.98;0.30;;;;;;;;;;5012766;28;20084;-75
2021/10/13 09:33:22;;;;;;;2.58;0.30;;;;;;;;;;5012779;28;20655;-75
2021/10/13 09:35:52;;;;;;;3.03;0.38;;;;;;;;;;5007382;28;20045;-75
2021/10/13 09:38:18;;;;;;;3.67;1.00;;;;;;;;;;5004943;28;20042;-74
2021/10/13 09:40:44;;;;;;;3.05;0.50;;;;;;;;;;5009698;28;20076;-74
2021/10/13 09:43:29;;;;;;;4.43;0.43;;;;;;;;;;5012786;28;20121;-75
2021/10/13 09:46:06;;;;;;;5.30;0.55;;;;;;;;;;5011088;28;20033;-75
2021/10/13 09:48:32;;;;;;;5.47;0.40;;;;;;;;;;5010986;28;20386;-75
2021/10/13 09:51:11;;;;;;;1.38;0.40;;;;;;;;;;5009620;28;20022;-74
2021/10/13 09:53:37;;;;;;;1.77;0.55;;;;;;;;;;5010415;28;20037;-75
2021/10/13 09:56:03;;;;;;;2.47;0.50;;;;;;;;;;5009577;28;20054;-75
2021/10/13 09:58:31;;;;;;;3.33;0.32;;;;;;;;;;5010962;28;20014;-74
2021/10/13 10:01:08;;;;;;;1.13;0.30;;;;;;;;;;5007626;28;20504;-74
2021/10/13 10:03:35;;;;;;;3.33;0.88;;;;;;;;;;5006024;28;20022;-75
2021/10/13 10:06:01;;;;;;;3.55;1.05;;;;;;;;;;5011716;28;20076;-75
2021/10/13 10:08:27;;;;;;;4.43;0.30;;;;;;;;;;5010114;28;20458;-75
2021/10/13 10:11:02;;;;;;;6.20;0.38;;;;;;;;;;5002978;28;20063;-76
2021/10/13 10:13:37;;;;;;;2.00;0.50;;;;;;;;;;5007367;28;20022;-76
2021/10/13 10:16:03;;;;;;;2.78;0.30;;;;;;;;;;5006072;28;20502;-76
2021/10/13 10:18:32;;;;;;;2.53;0.25;;;;;;;;;;5007658;28;20030;-75
2021/10/13 10:21:17;;;;;;;3.33;0.60;;;;;;;;;;5011788;28;20022;-76
2021/10/13 10:23:43;;;;;;;3.10;0.63;;;;;;;;;;5011296;28;20034;-75
2021/10/13 10:26:25;;;;;;;5.70;0.57;;;;;;;;;;5011503;28;20195;-75
2021/10/13 10:28:51;;;;;;;3.33;0.40;;;;;;;;;;5011189;28;20049;-75
2021/10/13 10:31:22;;;;;;;3.45;0.40;;;;;;;;;;5003740;28;20034;-75
2021/10/13 10:33:49;;;;;;;5.53;0.52;;;;;;;;;;4997126;28;20116;-75
2021/10/13 10:36:15;;;;;;;5.68;0.50;;;;;;;;;;5002291;28;20033;-75
2021/10/13 10:38:48;;;;;;;4.30;0.95;;;;;;;;;;5016510;28;20038;-75
2021/10/13 10:41:14;;;;;;;3.97;0.88;;;;;;;;;;5005535;28;20120;-75
2021/10/13 10:43:40;;;;;;;4.15;0.55;;;;;;;;;;5001191;28;20519;-75
2021/10/13 10:46:06;;;;;;;6.50;0.52;;;;;;;;;;5004555;28;20418;-75
2021/10/13 10:48:58;;;;;;;6.45;0.40;;;;;;;;;;5012476;28;20535;-75
2021/10/13 10:51:24;;;;;;;2.50;0.30;;;;;;;;;;4993210;28;20042;-75
2021/10/13 10:53:50;;;;;;;3.45;0.50;;;;;;;;;;4997755;28;20497;-75
2021/10/13 10:56:21;;;;;;;4.20;0.52;;;;;;;;;;4996271;28;20141;-75
2021/10/13 10:58:56;;;;;;;2.90;0.38;;;;;;;;;;4993634;28;20125;-75
2021/10/13 11:01:22;;;;;;;3.42;1.20;;;;;;;;;;4998450;28;20033;-75
2021/10/13 11:03:48;;;;;;;4.40;0.40;;;;;;;;;;4998086;28;20027;-75
2021/10/13 11:06:20;;;;;;;4.00;1.15;;;;;;;;;;4997003;28;20454;-75
2021/10/13 11:08:57;;;;;;;5.45;0.47;;;;;;;;;;4994387;28;20038;-75
2021/10/13 11:11:25;;;;;;;3.15;0.30;;;;;;;;;;4996327;28;20034;-75
2021/10/13 11:13:55;;;;;;;4.63;0.30;;;;;;;;;;4994104;28;20030;-75
2021/10/13 11:16:20;;;;;;;4.25;0.30;;;;;;;;;;4998890;28;20018;-75
2021/10/13 11:18:47;;;;;;;1.85;0.32;;;;;;;;;;5016478;28;20495;-75
2021/10/13 11:21:13;;;;;;;2.10;0.40;;;;;;;;;;5005792;28;20042;-75
2021/10/13 11:23:39;;;;;;;5.80;0.60;;;;;;;;;;5004527;28;20032;-74
2021/10/13 11:26:05;;;;;;;2.88;0.38;;;;;;;;;;5009003;28;20029;-75
2021/10/13 11:28:38;;;;;;;1.58;0.20;;;;;;;;;;5008221;28;20474;-74
2021/10/13 11:31:05;;;;;;;2.97;0.40;;;;;;;;;;5013212;28;20391;-75
2021/10/13 11:33:31;;;;;;;4.78;1.40;;;;;;;;;;5005196;28;20096;-75
2021/10/13 11:36:03;;;;;;;5.18;0.40;;;;;;;;;;5010125;28;20108;-75
2021/10/13 11:38:32;;;;;;;4.60;0.30;;;;;;;;;;5002838;28;20030;-75
2021/10/13 11:41:05;;;;;;;4.40;0.50;;;;;;;;;;4999965;28;20037;-75
2021/10/13 11:43:31;;;;;;;4.90;0.55;;;;;;;;;;5017606;28;20026;-75
2021/10/13 11:45:57;;;;;;;5.32;0.30;;;;;;;;;;5003748;28;20034;-75
2021/10/13 11:48:24;;;;;;;3.92;0.40;;;;;;;;;;5001710;28;20033;-75
2021/10/13 11:50:50;;;;;;;5.05;0.47;;;;;;;;;;5006360;28;20034;-75
2021/10/13 11:53:19;;;;;;;2.65;0.60;;;;;;;;;;5002205;28;20105;-74
2021/10/13 11:55:46;;;;;;;5.80;0.70;;;;;;;;;;5005754;28;20045;-77
2021/10/13 11:58:21;;;;;;;2.40;0.55;;;;;;;;;;5006065;28;20049;-74
2021/10/13 12:00:47;;;;;;;2.83;0.30;;;;;;;;;;5002551;28;20030;-75
2021/10/13 12:03:14;;;;;;;4.78;0.68;;;;;;;;;;5007859;28;20026;-75
2021/10/13 12:05:42;;;;;;;1.75;0.40;;;;;;;;;;5002051;28;20073;-74
2021/10/13 12:08:09;;;;;;;2.15;0.28;;;;;;;;;;5002543;28;20656;-74
2021/10/13 12:10:37;;;;;;;1.40;0.22;;;;;;;;;;5002941;28;20038;-75
2021/10/13 12:13:04;;;;;;;3.13;0.30;;;;;;;;;;5005887;28;20021;-75
2021/10/13 12:15:30;;;;;;;2.90;0.30;;;;;;;;;;4996121;28;20052;-75
2021/10/13 12:18:14;;;;;;;2.97;0.40;;;;;;;;;;5003112;28;20156;-75
2021/10/13 12:20:40;;;;;;;3.72;0.90;;;;;;;;;;5000281;28;20023;-74
2021/10/13 12:23:13;;;;;;;1.55;0.28;;;;;;;;;;5006729;28;20052;-75
2021/10/13 12:25:39;;;;;;;7.15;0.85;;;;;;;;;;5005522;28;20108;-75
2021/10/13 12:28:19;;;;;;;3.20;0.50;;;;;;;;;;5001558;28;20045;-75
2021/10/13 12:30:47;;;;;;;4.78;0.22;;;;;;;;;;5002709;28;20027;-75
2021/10/13 12:33:16;;;;;;;3.10;0.65;;;;;;;;;;5033903;23;20053;-71
2021/10/13 12:35:43;;;;;;;0.90;0.20;;;;;;;;;;4995434;28;20026;-71
2021/10/13 12:38:11;;;;;;;3.60;0.40;;;;;;;;;;5016497;28;20024;-71
2021/10/13 12:40:37;;;;;;;4.00;0.50;;;;;;;;;;5015933;28;20064;-73
2021/10/13 12:43:32;;;;;;;2.42;0.60;;;;;;;;;;5018575;28;20097;-71
2021/10/13 12:46:17;;;;;;;2.05;0.40;;;;;;;;;;5002456;28;20435;-71
2021/10/13 12:48:43;;;;;;;3.90;0.70;;;;;;;;;;5016150;28;20025;-70
2021/10/13 12:51:10;;;;;;;4.85;0.40;;;;;;;;;;5013923;28;20056;-71
2021/10/13 12:53:37;;;;;;;3.47;0.50;;;;;;;;;;5012220;28;20033;-71
2021/10/13 12:56:03;;;;;;;1.73;0.20;;;;;;;;;;5011663;28;20052;-71
2021/10/13 12:58:29;;;;;;;3.63;0.40;;;;;;;;;;5012615;28;20073;-71
2021/10/13 13:00:56;;;;;;;2.20;0.30;;;;;;;;;;5018668;28;20046;-71
2021/10/13 13:03:23;;;;;;;1.98;0.30;;;;;;;;;;5015342;28;20045;-71
2021/10/13 13:05:49;;;;;;;2.00;0.30;;;;;;;;;;5017125;28;20029;-71
2021/10/13 13:08:15;;;;;;;6.70;0.55;;;;;;;;;;5012335;28;20029;-72
2021/10/13 13:10:41;;;;;;;2.50;0.45;;;;;;;;;;5012525;28;20034;-72
2021/10/13 13:13:07;;;;;;;1.92;0.32;;;;;;;;;;5010741;28;20251;-72
2021/10/13 13:15:33;;;;;;;3.45;0.40;;;;;;;;;;5009864;28;20486;-72
2021/10/13 13:17:59;;;;;;;1.98;0.30;;;;;;;;;;5012029;28;20018;-72
2021/10/13 13:20:25;;;;;;;1.70;0.43;;;;;;;;;;5015184;28;20486;-71
2021/10/13 13:22:51;;;;;;;1.85;0.20;;;;;;;;;;5015997;28;20086;-71
2021/10/13 13:25:17;;;;;;;4.72;0.43;;;;;;;;;;4994256;28;20050;-71
2021/10/13 13:27:43;;;;;;;5.47;0.52;;;;;;;;;;4995286;28;20038;-71
2021/10/13 13:30:09;;;;;;;2.55;0.30;;;;;;;;;;5013575;28;20044;-72
2021/10/13 13:32:37;;;;;;;3.58;0.30;;;;;;;;;;5014092;28;20034;-74
2021/10/13 13:35:03;;;;;;;1.88;0.30;;;;;;;;;;5012775;28;20380;-72
2021/10/13 13:37:29;;;;;;;1.90;0.30;;;;;;;;;;5011899;28;20080;-71
2021/10/13 13:39:55;;;;;;;1.23;0.30;;;;;;;;;;5014139;28;20030;-72
2021/10/13 13:42:21;;;;;;;3.80;0.40;;;;;;;;;;5001157;28;20026;-72
2021/10/13 13:44:47;;;;;;;4.50;0.40;;;;;;;;;;5019002;28;20041;-72
2021/10/13 13:47:13;;;;;;;2.72;0.52;;;;;;;;;;5014674;28;20044;-72
2021/10/13 13:49:39;;;;;;;2.80;0.47;;;;;;;;;;5012992;28;20026;-72
2021/10/13 13:52:05;;;;;;;3.95;0.43;;;;;;;;;;5019387;28;20025;-72
2021/10/13 13:54:31;;;;;;;4.25;0.20;;;;;;;;;;5012339;28;20026;-72
2021/10/13 13:56:57;;;;;;;6.00;0.90;;;;;;;;;;5011792;28;20026;-72
2021/10/13 13:59:24;;;;;;;5.40;0.40;;;;;;;;;;5011246;28;20022;-72
2021/10/13 14:01:50;;;;;;;2.78;0.50;;;;;;;;;;5011503;28;20025;-74
2021/10/13 14:04:16;;;;;;;3.85;0.30;;;;;;;;;;5013193;28;20045;-73
2021/10/13 14:06:42;;;;;;;1.95;0.20;;;;;;;;;;5014481;28;20442;-72
2021/10/13 14:09:08;;;;;;;2.03;0.20;;;;;;;;;;5010320;28;20034;-72
2021/10/13 14:11:34;;;;;;;1.63;0.30;;;;;;;;;;5030957;28;20509;-72
2021/10/13 14:14:00;;;;;;;1.70;0.30;;;;;;;;;;5017210;28;20109;-72
2021/10/13 14:16:26;;;;;;;1.55;0.40;;;;;;;;;;5011140;28;20026;-72
2021/10/13 14:18:52;;;;;;;1.42;0.40;;;;;;;;;;5011016;28;20037;-72
2021/10/13 14:21:18;;;;;;;5.05;0.70;;;;;;;;;;5015527;28;20100;-72
2021/10/13 14:23:44;;;;;;;1.33;0.30;;;;;;;;;;5012702;28;20133;-72
2021/10/13 14:26:10;;;;;;;2.83;0.40;;;;;;;;;;5015191;28;20026;-72
2021/10/13 14:28:36;;;;;;;4.07;0.47;;;;;;;;;;5017067;28;20153;-73
2021/10/13 14:31:04;;;;;;;1.48;0.25;;;;;;;;;;5011793;28;20038;-72
2021/10/13 14:33:30;;;;;;;1.52;0.38;;;;;;;;;;4995900;28;20034;-72
2021/10/13 14:35:56;;;;;;;2.17;0.50;;;;;;;;;;5020371;28;20034;-72
2021/10/13 14:38:22;;;;;;;2.15;0.22;;;;;;;;;;5011500;28;20018;-72
2021/10/13 14:40:48;;;;;;;5.20;0.32;;;;;;;;;;5010680;28;20431;-72
2021/10/13 14:43:14;;;;;;;4.15;0.30;;;;;;;;;;5011666;28;20029;-72
2021/10/13 14:45:40;;;;;;;5.40;0.30;;;;;;;;;;5012165;28;20029;-72